GABS

Senou Airport

Senou, Mali
TAF GABS 201100Z 2012/2118 06012KT 8000 NSC PROB40 TEMPO 2106/2111 4000 DU
Issued Valid From Valid To
Jan-20 @ 11:00 UTC
(3 hours ago)
Jan-20 @ 12:00 UTC
(2 hours ago)
Jan-21 @ 18:00 UTC
(-1 days ago)
Jan-20 @ 12:00 to Jan-21 @ 18:00
TAF GABS 201100Z 2012/2118 06012KT 8000 NSC
Wind Visibility Clouds
60° at 12 knots 7,998 meters
  • No significant clouds
Temporary  (Probability 40%) Jan-21 @ 06:00 to Jan-21 @ 11:00
PROB40 TEMPO 2106/2111 4000 DU
Visibility Conditions
4,007 meters
  • Dust
TAF GABS 201100Z 2012/2118 06012KT 8000 NSC PROB40 TEMPO 2106/2111 4000 DU
Issued Jan-20 @ 11:00 UTC
(3 hours ago)
Valid From Jan-20 @ 12:00 UTC
(2 hours ago)
Valid To Jan-21 @ 18:00 UTC
(-1 days ago)
Jan-20 @ 12:00 - Jan-21 @ 18:00
Wind Visibility
60° at 12 knots 7,998 meters
Clouds
  • No significant clouds
Probability 40% Temporary Jan-21 @ 06:00 - Jan-21 @ 11:00
Conditions
  • Dust